Whitchurch-Stouffville, Canada
Current Conditions -  °F | °C
As of 6:00 PM on Thursday 27 Nov 2014 (Local Time) from CYKZ Reporting Station
Broken Clouds Broken Clouds  
Wind Chill: 22°   Ceiling: 9500
Heat Index: 30°   Visibility: 15mi
Dew Point: 21°   Wind: 9mph
Humidity: 69%   Direction: 340°NNW
Pressure: 30.08"   Gusts: NA
Location:  43.97°N, 79.25°W
Report Text: CYKZ 272300Z 34008KT 15SM SCT065 BKN095 M01/M06 A3008 RMKSC3AC2 SLP194
Loading
Personal Weather Stations






























Interactive Weather Map New forecast layout! Learn more

10-Day Weather Forecast

Advertisements
Track Severe Weather on mobile